Night Hawk — WDB7827 — position and weather

sailwx.info

Track history (hours):
 
Tides and Currents Weather Stations Pressure Air Temp Water Temp Dewpoint Dewpoint Depression Visibility Wind Speed Wind Dir Waves Ship Positions

Night Hawk

Owner: Salisbury Towing Corporation, Havre de Grace, MD. More information available from US FCC via Universal Licensing System and Coast Guard Vessel Documentation Center.

Last reported at 2018-Jan-20 01:00 UTC. Time now 2018-Jan-20 01:23 UTC.
Position N 39°34' W 076°06'.

; draft 10 m.

Type: Tug. MMSI: 366948330.

Date/timePositionNaut miles runAvg speedWind from/ knotsBaromVisibWave heightAir tempDewpointWater temp
2018-Jan-20 01:00N 39°34' W 076°06'0 0.0
2018-Jan-20 00:29N 39°34' W 076°06'0 0.0
2018-Jan-19 23:52N 39°34' W 076°06'0 0.0
2018-Jan-19 23:19N 39°34' W 076°06'0 0.0
2018-Jan-19 23:00N 39°34' W 076°06'0 0.0
2018-Jan-19 22:30N 39°34' W 076°06'0 0.0
2018-Jan-19 21:50N 39°34' W 076°06'0 0.0
2018-Jan-19 21:30N 39°34' W 076°06'0 0.0
2018-Jan-19 20:59N 39°34' W 076°06'0 0.0
2018-Jan-19 20:21N 39°34' W 076°06'0 0.0
2018-Jan-19 19:58N 39°34' W 076°06'0 0.0
2018-Jan-19 19:28N 39°34' W 076°06'0 0.0
2018-Jan-19 18:56N 39°34' W 076°06'0 0.0
2018-Jan-19 18:30N 39°34' W 076°06'0 0.0
2018-Jan-19 17:58N 39°34' W 076°06'0 0.0
2018-Jan-19 17:28N 39°34' W 076°06'0 0.0
2018-Jan-19 17:01N 39°34' W 076°06'0 0.0
2018-Jan-19 16:30N 39°34' W 076°06'0 0.0
2018-Jan-19 16:00N 39°34' W 076°06'0 0.0
2018-Jan-19 15:30N 39°34' W 076°06'0 0.0
2018-Jan-19 15:00N 39°34' W 076°06'0 0.0
2018-Jan-19 14:30N 39°34' W 076°06'0 0.0
2018-Jan-19 14:00N 39°34' W 076°06'0 0.0
2018-Jan-19 13:30N 39°34' W 076°06'0 0.4
2018-Jan-19 13:01N 39°34' W 076°06'2 3.6
2018-Jan-19 12:30N 39°33' W 076°05'4 7.0
2018-Jan-19 12:00N 39°29' W 076°05'4 7.4
2018-Jan-19 11:30N 39°26' W 076°02'4 8.1
2018-Jan-19 11:00N 39°23' W 076°06'4 8.4
2018-Jan-19 10:30N 39°21' W 076°10'4 7.9
2018-Jan-19 10:00N 39°18' W 076°13'6 8.1
2018-Jan-19 09:20N 39°12' W 076°16'3 8.5
2018-Jan-19 09:00N 39°10' W 076°18'5 8.3
2018-Jan-19 08:28N 39°06' W 076°20'4 8.6
2018-Jan-19 08:00N 39°02' W 076°22'4 8.3
2018-Jan-19 07:30N 38°58' W 076°24'5 8.5
2018-Jan-19 06:58N 38°54' W 076°25'8 0.7
2018-Jan-18 18:25N 38°46' W 076°27'3 7.6
2018-Jan-18 18:00N 38°49' W 076°27'4 7.7
2018-Jan-18 17:30N 38°53' W 076°26'4 7.7
2018-Jan-18 17:00N 38°57' W 076°25'4 7.9
2018-Jan-18 16:30N 39°00' W 076°23'4 7.6
2018-Jan-18 16:00N 39°04' W 076°24'4 7.4
2018-Jan-18 15:28N 39°08' W 076°24'3 6.9
2018-Jan-18 15:01N 39°11' W 076°25'3 6.2
2018-Jan-18 14:27N 39°13' W 076°22'8 6.0
2018-Jan-18 13:05N 39°18' W 076°13'1 6.7
2018-Jan-18 13:00N 39°18' W 076°13'3 6.9
2018-Jan-18 12:30N 39°21' W 076°10'4 7.0
2018-Jan-18 12:00N 39°23' W 076°06'3 6.6
2018-Jan-18 11:30N 39°25' W 076°03'3 6.0
2018-Jan-18 11:00N 39°28' W 076°03'3 6.0
2018-Jan-18 10:31N 39°30' W 076°05'3 5.9
2018-Jan-18 10:00N 39°33' W 076°05'0 0.5
2018-Jan-18 09:31N 39°33' W 076°04'0 0.0
2018-Jan-18 09:00N 39°33' W 076°04'0 0.0
2018-Jan-18 08:30N 39°33' W 076°04'0 0.0
2018-Jan-18 08:00N 39°33' W 076°04'0 0.0
2018-Jan-18 07:30N 39°33' W 076°04'0 0.0
2018-Jan-18 07:00N 39°33' W 076°04'0 0.0
2018-Jan-18 06:30N 39°33' W 076°04'0 0.0
2018-Jan-18 06:01N 39°33' W 076°04'0 0.0
2018-Jan-18 05:30N 39°33' W 076°04'0 0.0
2018-Jan-18 05:00N 39°33' W 076°04'0 0.1
2018-Jan-18 04:30N 39°33' W 076°04'2 4.4
2018-Jan-18 04:00N 39°34' W 076°06'0 0.0
2018-Jan-18 03:31N 39°34' W 076°06'0 0.0
2018-Jan-18 03:00N 39°34' W 076°06'0 0.1
2018-Jan-18 02:30N 39°34' W 076°06'0 0.0
2018-Jan-18 02:00N 39°34' W 076°06'0 0.0
2018-Jan-18 01:30N 39°34' W 076°06'0 0.0
2018-Jan-18 01:01N 39°34' W 076°06'0 0.0
2018-Jan-18 00:00N 39°34' W 076°06'0 0.0
2018-Jan-17 23:57N 39°34' W 076°06'  
2018-Jan-12 15:00N 39°34' W 076°06'0 0.0
2018-Jan-12 14:30N 39°34' W 076°06'0 0.0
2018-Jan-12 14:00N 39°34' W 076°06'0 0.0
2018-Jan-12 13:30N 39°34' W 076°06'0 0.0
2018-Jan-12 13:00N 39°34' W 076°06'0 0.0
2018-Jan-12 12:30N 39°34' W 076°06'0 0.2
2018-Jan-12 12:00N 39°34' W 076°06'0 0.2
2018-Jan-12 11:31N 39°34' W 076°06'0 0.2
2018-Jan-12 11:00N 39°34' W 076°06'0 0.0
2018-Jan-12 10:29N 39°34' W 076°06'0 0.0
2018-Jan-12 10:00N 39°34' W 076°06'0 0.0
2018-Jan-12 09:30N 39°34' W 076°06'0 0.0
2018-Jan-12 09:00N 39°34' W 076°06'0 0.0
2018-Jan-12 08:30N 39°34' W 076°06'0 0.0
2018-Jan-12 08:00N 39°34' W 076°06'0 0.0
2018-Jan-12 07:30N 39°34' W 076°06'0 0.0
2018-Jan-12 06:59N 39°34' W 076°06'0 0.0
2018-Jan-12 06:31N 39°34' W 076°06'0 0.0
2018-Jan-12 05:53N 39°34' W 076°06'0 0.0
2018-Jan-12 05:30N 39°34' W 076°06'0 0.0
2018-Jan-12 04:59N 39°34' W 076°06'0 0.0
2018-Jan-12 04:30N 39°34' W 076°06'0 0.0
2018-Jan-12 03:59N 39°34' W 076°06'0 0.0
2018-Jan-12 03:29N 39°34' W 076°06'0 0.0
2018-Jan-12 03:00N 39°34' W 076°06'0 0.0
2018-Jan-12 02:30N 39°34' W 076°06'0 0.0
2018-Jan-12 02:00N 39°34' W 076°06'0 0.0
2018-Jan-12 01:29N 39°34' W 076°06'0 0.0
2018-Jan-12 01:00N 39°34' W 076°06'0 0.0
2018-Jan-12 00:29N 39°34' W 076°06'0 0.0
2018-Jan-11 23:59N 39°34' W 076°06'0 0.0
2018-Jan-11 23:30N 39°34' W 076°06'0 0.0
2018-Jan-11 22:57N 39°34' W 076°06'0 0.0
2018-Jan-11 22:30N 39°34' W 076°06'0 0.0
2018-Jan-11 22:00N 39°34' W 076°06'0 0.4
2018-Jan-11 21:30N 39°34' W 076°06'0 0.4
2018-Jan-11 21:00N 39°34' W 076°06'0 0.0
2018-Jan-11 20:29N 39°34' W 076°06'0 0.0
2018-Jan-11 20:00N 39°34' W 076°06'0 0.0
2018-Jan-11 19:30N 39°34' W 076°06'1 1.7
2018-Jan-11 19:00N 39°34' W 076°05'1 1.2
2018-Jan-11 18:30N 39°34' W 076°06'1 2.6
2018-Jan-11 18:00N 39°33' W 076°05'1 0.8
2018-Jan-11 16:08N 39°34' W 076°06'0 0.0
2018-Jan-11 16:00N 39°34' W 076°06'0 0.4
2018-Jan-11 15:31N 39°34' W 076°06'0 0.3
2018-Jan-11 15:00N 39°34' W 076°06'0 0.0
2018-Jan-11 14:30N 39°34' W 076°06'0 0.0
2018-Jan-11 14:00N 39°34' W 076°06'0 0.0
2018-Jan-11 13:30N 39°34' W 076°06'0 0.0
2018-Jan-11 12:59N 39°34' W 076°06'0 0.0
2018-Jan-11 12:31N 39°34' W 076°06'  
Track history (hours):
 
Tides and Currents Weather Stations Pressure Air Temp Water Temp Dewpoint Dewpoint Depression Visibility Wind Speed Wind Dir Waves Ship Positions

Night Hawk

Owner: Salisbury Towing Corporation, Havre de Grace, MD. More information available from US FCC via Universal Licensing System and Coast Guard Vessel Documentation Center.

Last reported at 2018-Jan-20 01:00 UTC. Time now 2018-Jan-20 01:23 UTC.
Position N 39°34' W 076°06'.

; draft 10 m.

Type: Tug. MMSI: 366948330.

Date/timePositionNaut miles runAvg speedWind from/ knotsBaromVisibWave heightAir tempDewpointWater temp
2018-Jan-20 01:00N 39°34' W 076°06'0 0.0
2018-Jan-20 00:29N 39°34' W 076°06'0 0.0
2018-Jan-19 23:52N 39°34' W 076°06'0 0.0
2018-Jan-19 23:19N 39°34' W 076°06'0 0.0
2018-Jan-19 23:00N 39°34' W 076°06'0 0.0
2018-Jan-19 22:30N 39°34' W 076°06'0 0.0
2018-Jan-19 21:50N 39°34' W 076°06'0 0.0
2018-Jan-19 21:30N 39°34' W 076°06'0 0.0
2018-Jan-19 20:59N 39°34' W 076°06'0 0.0
2018-Jan-19 20:21N 39°34' W 076°06'0 0.0
2018-Jan-19 19:58N 39°34' W 076°06'0 0.0
2018-Jan-19 19:28N 39°34' W 076°06'0 0.0
2018-Jan-19 18:56N 39°34' W 076°06'0 0.0
2018-Jan-19 18:30N 39°34' W 076°06'0 0.0
2018-Jan-19 17:58N 39°34' W 076°06'0 0.0
2018-Jan-19 17:28N 39°34' W 076°06'0 0.0
2018-Jan-19 17:01N 39°34' W 076°06'0 0.0
2018-Jan-19 16:30N 39°34' W 076°06'0 0.0
2018-Jan-19 16:00N 39°34' W 076°06'0 0.0
2018-Jan-19 15:30N 39°34' W 076°06'0 0.0
2018-Jan-19 15:00N 39°34' W 076°06'0 0.0
2018-Jan-19 14:30N 39°34' W 076°06'0 0.0
2018-Jan-19 14:00N 39°34' W 076°06'0 0.0
2018-Jan-19 13:30N 39°34' W 076°06'0 0.4
2018-Jan-19 13:01N 39°34' W 076°06'2 3.6
2018-Jan-19 12:30N 39°33' W 076°05'4 7.0
2018-Jan-19 12:00N 39°29' W 076°05'4 7.4
2018-Jan-19 11:30N 39°26' W 076°02'4 8.1
2018-Jan-19 11:00N 39°23' W 076°06'4 8.4
2018-Jan-19 10:30N 39°21' W 076°10'4 7.9
2018-Jan-19 10:00N 39°18' W 076°13'6 8.1
2018-Jan-19 09:20N 39°12' W 076°16'3 8.5
2018-Jan-19 09:00N 39°10' W 076°18'5 8.3
2018-Jan-19 08:28N 39°06' W 076°20'4 8.6
2018-Jan-19 08:00N 39°02' W 076°22'4 8.3
2018-Jan-19 07:30N 38°58' W 076°24'5 8.5
2018-Jan-19 06:58N 38°54' W 076°25'8 0.7
2018-Jan-18 18:25N 38°46' W 076°27'3 7.6
2018-Jan-18 18:00N 38°49' W 076°27'4 7.7
2018-Jan-18 17:30N 38°53' W 076°26'4 7.7
2018-Jan-18 17:00N 38°57' W 076°25'4 7.9
2018-Jan-18 16:30N 39°00' W 076°23'4 7.6
2018-Jan-18 16:00N 39°04' W 076°24'4 7.4
2018-Jan-18 15:28N 39°08' W 076°24'3 6.9
2018-Jan-18 15:01N 39°11' W 076°25'3 6.2
2018-Jan-18 14:27N 39°13' W 076°22'8 6.0
2018-Jan-18 13:05N 39°18' W 076°13'1 6.7
2018-Jan-18 13:00N 39°18' W 076°13'3 6.9
2018-Jan-18 12:30N 39°21' W 076°10'4 7.0
2018-Jan-18 12:00N 39°23' W 076°06'3 6.6
2018-Jan-18 11:30N 39°25' W 076°03'3 6.0
2018-Jan-18 11:00N 39°28' W 076°03'3 6.0
2018-Jan-18 10:31N 39°30' W 076°05'3 5.9
2018-Jan-18 10:00N 39°33' W 076°05'0 0.5
2018-Jan-18 09:31N 39°33' W 076°04'0 0.0
2018-Jan-18 09:00N 39°33' W 076°04'0 0.0
2018-Jan-18 08:30N 39°33' W 076°04'0 0.0
2018-Jan-18 08:00N 39°33' W 076°04'0 0.0
2018-Jan-18 07:30N 39°33' W 076°04'0 0.0
2018-Jan-18 07:00N 39°33' W 076°04'0 0.0
2018-Jan-18 06:30N 39°33' W 076°04'0 0.0
2018-Jan-18 06:01N 39°33' W 076°04'0 0.0
2018-Jan-18 05:30N 39°33' W 076°04'0 0.0
2018-Jan-18 05:00N 39°33' W 076°04'0 0.1
2018-Jan-18 04:30N 39°33' W 076°04'2 4.4
2018-Jan-18 04:00N 39°34' W 076°06'0 0.0
2018-Jan-18 03:31N 39°34' W 076°06'0 0.0
2018-Jan-18 03:00N 39°34' W 076°06'0 0.1
2018-Jan-18 02:30N 39°34' W 076°06'0 0.0
2018-Jan-18 02:00N 39°34' W 076°06'0 0.0
2018-Jan-18 01:30N 39°34' W 076°06'0 0.0
2018-Jan-18 01:01N 39°34' W 076°06'0 0.0
2018-Jan-18 00:00N 39°34' W 076°06'0 0.0
2018-Jan-17 23:57N 39°34' W 076°06'  
2018-Jan-12 15:00N 39°34' W 076°06'0 0.0
2018-Jan-12 14:30N 39°34' W 076°06'0 0.0
2018-Jan-12 14:00N 39°34' W 076°06'0 0.0
2018-Jan-12 13:30N 39°34' W 076°06'0 0.0
2018-Jan-12 13:00N 39°34' W 076°06'0 0.0
2018-Jan-12 12:30N 39°34' W 076°06'0 0.2
2018-Jan-12 12:00N 39°34' W 076°06'0 0.2
2018-Jan-12 11:31N 39°34' W 076°06'0 0.2
2018-Jan-12 11:00N 39°34' W 076°06'0 0.0
2018-Jan-12 10:29N 39°34' W 076°06'0 0.0
2018-Jan-12 10:00N 39°34' W 076°06'0 0.0
2018-Jan-12 09:30N 39°34' W 076°06'0 0.0
2018-Jan-12 09:00N 39°34' W 076°06'0 0.0
2018-Jan-12 08:30N 39°34' W 076°06'0 0.0
2018-Jan-12 08:00N 39°34' W 076°06'0 0.0
2018-Jan-12 07:30N 39°34' W 076°06'0 0.0
2018-Jan-12 06:59N 39°34' W 076°06'0 0.0
2018-Jan-12 06:31N 39°34' W 076°06'0 0.0
2018-Jan-12 05:53N 39°34' W 076°06'0 0.0
2018-Jan-12 05:30N 39°34' W 076°06'0 0.0
2018-Jan-12 04:59N 39°34' W 076°06'0 0.0
2018-Jan-12 04:30N 39°34' W 076°06'0 0.0
2018-Jan-12 03:59N 39°34' W 076°06'0 0.0
2018-Jan-12 03:29N 39°34' W 076°06'0 0.0
2018-Jan-12 03:00N 39°34' W 076°06'0 0.0
2018-Jan-12 02:30N 39°34' W 076°06'0 0.0
2018-Jan-12 02:00N 39°34' W 076°06'0 0.0
2018-Jan-12 01:29N 39°34' W 076°06'0 0.0
2018-Jan-12 01:00N 39°34' W 076°06'0 0.0
2018-Jan-12 00:29N 39°34' W 076°06'0 0.0
2018-Jan-11 23:59N 39°34' W 076°06'0 0.0
2018-Jan-11 23:30N 39°34' W 076°06'0 0.0
2018-Jan-11 22:57N 39°34' W 076°06'0 0.0
2018-Jan-11 22:30N 39°34' W 076°06'0 0.0
2018-Jan-11 22:00N 39°34' W 076°06'0 0.4
2018-Jan-11 21:30N 39°34' W 076°06'0 0.4
2018-Jan-11 21:00N 39°34' W 076°06'0 0.0
2018-Jan-11 20:29N 39°34' W 076°06'0 0.0
2018-Jan-11 20:00N 39°34' W 076°06'0 0.0
2018-Jan-11 19:30N 39°34' W 076°06'1 1.7
2018-Jan-11 19:00N 39°34' W 076°05'1 1.2
2018-Jan-11 18:30N 39°34' W 076°06'1 2.6
2018-Jan-11 18:00N 39°33' W 076°05'1 0.8
2018-Jan-11 16:08N 39°34' W 076°06'0 0.0
2018-Jan-11 16:00N 39°34' W 076°06'0 0.4
2018-Jan-11 15:31N 39°34' W 076°06'0 0.3
2018-Jan-11 15:00N 39°34' W 076°06'0 0.0
2018-Jan-11 14:30N 39°34' W 076°06'0 0.0
2018-Jan-11 14:00N 39°34' W 076°06'0 0.0
2018-Jan-11 13:30N 39°34' W 076°06'0 0.0
2018-Jan-11 12:59N 39°34' W 076°06'0 0.0
2018-Jan-11 12:31N 39°34' W 076°06'  

Dump ship's entire track history